Time;durP1;ratioP1;P1;durP2;ratioP2;P2;SDS_P1;SDS_P2;PMS_P1;PMS_P2;Temp;Humidity;BMP_temperature;BMP_pressure;BME280_temperature;BME280_humidity;BME280_pressure;Samples;Min_cycle;Max_cycle;Signal;HPM_P1;HPM_P2
2022/02/09 00:03:21;;;;;;;3.97;2.10;;;10.20;99.90;;;;;;4131400;28;20026;-67
2022/02/09 00:05:41;;;;;;;2.63;1.70;;;10.10;99.90;;;;;;4135425;28;20046;-67
2022/02/09 00:09:57;;;;;;;3.30;1.67;;;10.10;99.90;;;;;;4139480;28;20049;-67
2022/02/09 00:14:07;;;;;;;4.47;2.00;;;10.10;99.90;;;;;;4137769;28;21097;-67
2022/02/09 00:16:24;;;;;;;4.95;2.00;;;10.20;99.90;;;;;;4141825;28;20084;-67
2022/02/09 00:37:04;;;;;;;3.50;1.30;;;10.20;99.90;;;;;;4063201;29;20498;-67
2022/02/09 00:41:27;;;;;;;2.38;1.02;;;10.30;99.90;;;;;;4139254;28;19963;-67
2022/02/09 01:39:14;;;;;;;1.08;0.93;;;10.00;99.90;;;;;;4138728;28;20477;-67
2022/02/09 01:57:17;;;;;;;1.73;1.30;;;10.00;99.90;;;;;;4130740;28;20092;-67
2022/02/09 01:59:18;;;;;;;1.98;1.60;;;10.00;99.90;;;;;;4138803;28;20038;-67
2022/02/09 02:01:19;;;;;;;1.83;1.40;;;10.00;99.90;;;;;;4133459;28;20049;-67
2022/02/09 02:03:19;;;;;;;2.45;1.58;;;9.90;99.90;;;;;;4136697;28;20598;-67
2022/02/09 02:05:20;;;;;;;2.42;1.85;;;9.90;99.90;;;;;;4134760;28;20088;-67
2022/02/09 02:08:04;;;;;;;2.28;1.98;;;9.90;99.90;;;;;;4139044;28;20045;-67
2022/02/09 02:09:45;;;;;;;3.45;2.78;;;9.90;99.90;;;;;;4126576;28;20077;-67
2022/02/09 02:11:55;;;;;;;2.88;2.35;;;9.80;99.90;;;;;;4136162;28;20026;-68
2022/02/09 02:16:20;;;;;;;4.18;2.90;;;9.90;99.90;;;;;;4140400;28;20547;-67
2022/02/09 02:18:22;;;;;;;4.00;3.15;;;9.80;99.90;;;;;;4140587;28;20038;-67
2022/02/09 02:20:33;;;;;;;4.30;2.58;;;9.80;99.90;;;;;;4142198;28;20034;-67
2022/02/09 02:22:46;;;;;;;4.53;3.05;;;9.90;99.90;;;;;;4143517;28;20133;-67
2022/02/09 02:25:44;;;;;;;4.88;2.97;;;9.90;99.90;;;;;;4136838;28;20500;-67
2022/02/09 02:30:19;;;;;;;5.25;3.10;;;9.90;99.90;;;;;;4139705;28;20073;-67
2022/02/09 02:41:39;;;;;;;5.43;3.30;;;9.90;99.90;;;;;;4142030;28;20038;-67
2022/02/09 02:46:19;;;;;;;4.30;3.42;;;9.90;99.90;;;;;;4137947;28;20050;-67
2022/02/09 02:58:12;;;;;;;5.05;3.38;;;9.90;99.90;;;;;;4142286;28;20041;-67
2022/02/09 03:08:24;;;;;;;4.05;3.42;;;9.90;99.90;;;;;;4133442;28;20096;-67
2022/02/09 03:13:53;;;;;;;4.53;3.38;;;9.90;99.90;;;;;;4134463;28;20508;-69
2022/02/09 03:16:00;;;;;;;3.20;2.85;;;9.90;99.90;;;;;;4133266;28;20038;-67
2022/02/09 03:20:24;;;;;;;4.20;3.22;;;9.90;99.90;;;;;;4139348;28;20390;-68
2022/02/09 03:22:42;;;;;;;3.92;3.53;;;10.00;99.90;;;;;;4126448;28;20190;-67
2022/02/09 03:31:34;;;;;;;5.35;4.25;;;10.00;99.90;;;;;;4143493;28;20066;-67
2022/02/09 03:54:04;;;;;;;5.15;4.13;;;9.90;99.90;;;;;;4138878;28;20037;-67
2022/02/09 03:56:27;;;;;;;8.50;4.80;;;9.90;99.90;;;;;;4143992;28;20034;-67
2022/02/09 03:58:27;;;;;;;5.40;3.97;;;9.90;99.90;;;;;;4140610;28;20084;-67
2022/02/09 04:00:33;;;;;;;6.28;4.80;;;9.90;99.90;;;;;;4140291;28;21257;-67
2022/02/09 04:02:34;;;;;;;7.18;4.78;;;9.90;99.90;;;;;;4141240;28;20109;-67
2022/02/09 04:04:35;;;;;;;6.22;4.28;;;9.90;99.90;;;;;;4145658;28;20121;-67
2022/02/09 04:06:37;;;;;;;6.45;4.40;;;9.80;99.90;;;;;;4135937;28;20385;-67
2022/02/09 04:08:46;;;;;;;5.65;3.90;;;9.90;99.90;;;;;;4137904;28;20034;-67
2022/02/09 04:11:14;;;;;;;4.65;3.63;;;9.80;99.90;;;;;;4138512;28;20038;-67
2022/02/09 04:13:19;;;;;;;5.50;3.72;;;9.80;99.90;;;;;;4139822;28;20030;-67
2022/02/09 04:15:28;;;;;;;4.15;3.22;;;9.80;99.90;;;;;;4140483;28;20038;-67
2022/02/09 04:19:47;;;;;;;5.93;4.10;;;9.90;99.90;;;;;;4142619;28;20045;-67
2022/02/09 04:38:13;;;;;;;6.72;3.53;;;9.80;99.90;;;;;;4140655;28;20049;-67
2022/02/09 04:40:28;;;;;;;5.30;3.85;;;9.80;99.90;;;;;;4137871;28;20132;-68
2022/02/09 04:49:23;;;;;;;4.60;3.40;;;9.80;99.90;;;;;;4141442;28;20049;-68
2022/02/09 04:52:01;;;;;;;4.43;3.17;;;9.80;99.90;;;;;;4141265;28;20050;-67
2022/02/09 04:56:12;;;;;;;4.82;3.08;;;9.80;99.90;;;;;;4141685;28;20066;-67
2022/02/09 04:58:39;;;;;;;2.58;2.28;;;9.80;99.90;;;;;;4138499;28;20157;-67
2022/02/09 05:00:55;;;;;;;3.50;2.30;;;9.80;99.90;;;;;;4135491;28;20474;-67
2022/02/09 05:05:48;;;;;;;3.65;2.42;;;9.70;99.90;;;;;;4136161;28;20034;-68
2022/02/09 05:26:03;;;;;;;5.03;2.80;;;9.70;99.90;;;;;;4135638;28;20099;-67
2022/02/09 05:28:17;;;;;;;4.85;2.53;;;9.70;99.90;;;;;;4137944;28;20057;-67
2022/02/09 05:30:17;;;;;;;2.15;1.40;;;9.70;99.90;;;;;;4116534;28;20050;-67
2022/02/09 05:32:18;;;;;;;2.75;1.95;;;9.70;99.90;;;;;;4135349;28;20458;-68
2022/02/09 05:34:18;;;;;;;2.15;1.58;;;9.70;99.90;;;;;;4134667;28;20029;-67
2022/02/09 05:36:19;;;;;;;2.42;1.58;;;9.80;99.90;;;;;;4135590;28;20649;-67
2022/02/09 05:38:20;;;;;;;3.47;1.70;;;9.80;99.90;;;;;;4134167;28;20042;-67
2022/02/09 05:40:21;;;;;;;3.00;1.85;;;9.70;99.90;;;;;;4136481;28;20064;-67
2022/02/09 05:42:21;;;;;;;2.05;1.60;;;9.70;99.90;;;;;;4137475;28;20161;-67
2022/02/09 05:44:23;;;;;;;2.65;1.63;;;9.70;99.90;;;;;;4134584;28;20440;-67
2022/02/09 05:47:02;;;;;;;2.45;1.42;;;9.70;99.90;;;;;;4116936;28;20058;-67
2022/02/09 05:53:36;;;;;;;2.95;1.40;;;9.80;99.90;;;;;;4134803;28;20060;-68
2022/02/09 05:56:07;;;;;;;2.08;1.42;;;9.70;99.90;;;;;;4132626;28;20518;-67
2022/02/09 05:58:13;;;;;;;2.03;1.30;;;9.70;99.90;;;;;;4137195;28;20064;-67
2022/02/09 06:00:15;;;;;;;4.25;2.17;;;9.70;99.90;;;;;;4132535;28;20046;-67
2022/02/09 06:02:16;;;;;;;2.90;1.50;;;9.70;99.90;;;;;;4136833;28;20037;-67
2022/02/09 06:04:17;;;;;;;3.65;1.48;;;9.80;99.90;;;;;;4115179;28;20030;-67
2022/02/09 06:06:17;;;;;;;2.20;1.70;;;9.70;99.90;;;;;;4122172;28;20433;-67
2022/02/09 06:08:18;;;;;;;2.97;2.00;;;9.80;99.90;;;;;;4134128;28;20090;-66
2022/02/09 06:10:23;;;;;;;3.08;2.15;;;9.80;99.90;;;;;;4134586;28;20398;-67
2022/02/09 06:12:32;;;;;;;4.20;2.30;;;9.80;99.90;;;;;;4134840;28;20042;-67
2022/02/09 06:21:35;;;;;;;;;;;9.80;99.90;;;;;;4134652;28;20042;-67
2022/02/09 06:23:36;;;;;;;4.25;2.63;;;9.90;99.90;;;;;;4129514;28;20001;-67
2022/02/09 06:25:36;;;;;;;5.25;2.97;;;9.80;99.90;;;;;;4134344;28;20041;-67
2022/02/09 06:27:37;;;;;;;6.13;3.33;;;9.80;99.90;;;;;;4127487;28;20099;-67
2022/02/09 06:29:39;;;;;;;5.35;3.67;;;9.80;99.90;;;;;;4130339;28;20070;-67
2022/02/09 06:31:40;;;;;;;;;;;9.80;99.90;;;;;;4134091;28;20129;-67
2022/02/09 06:33:41;;;;;;;7.82;4.18;;;9.80;99.90;;;;;;4135365;28;20362;-66
2022/02/09 06:35:43;;;;;;;8.13;4.28;;;9.80;99.90;;;;;;4134682;28;20049;-67
2022/02/09 06:37:46;;;;;;;6.57;4.20;;;9.80;99.90;;;;;;4132976;28;20095;-68
2022/02/09 06:39:54;;;;;;;6.53;4.55;;;9.80;99.90;;;;;;4130653;28;20061;-67
2022/02/09 06:41:55;;;;;;;8.57;4.80;;;9.70;99.90;;;;;;4133107;28;20321;-67
2022/02/09 06:43:56;;;;;;;7.20;4.93;;;9.80;99.90;;;;;;4134427;28;20059;-67
2022/02/09 06:45:56;;;;;;;8.55;5.43;;;9.80;99.90;;;;;;4132218;28;20505;-67
2022/02/09 06:47:57;;;;;;;6.45;4.97;;;9.80;99.90;;;;;;4134294;28;20057;-67
2022/02/09 06:50:02;;;;;;;6.10;4.45;;;9.80;99.90;;;;;;4131834;28;20034;-67
2022/02/09 06:52:03;;;;;;;8.40;5.18;;;9.80;99.90;;;;;;4134917;28;20038;-67
2022/02/09 06:56:10;;;;;;;8.45;5.53;;;9.90;99.90;;;;;;4131988;28;20043;-67
2022/02/09 06:58:18;;;;;;;7.55;5.03;;;9.80;99.90;;;;;;4134856;28;20045;-67
2022/02/09 07:00:21;;;;;;;6.57;4.82;;;9.80;99.90;;;;;;4135075;28;20042;-67
2022/02/09 07:02:22;;;;;;;8.60;5.32;;;9.80;99.90;;;;;;4134461;28;20604;-67
2022/02/09 07:04:22;;;;;;;8.57;5.50;;;9.80;99.90;;;;;;4138385;28;20137;-67
2022/02/09 07:06:23;;;;;;;8.98;5.32;;;9.80;99.90;;;;;;4138169;28;20049;-67
2022/02/09 07:08:23;;;;;;;6.13;4.43;;;9.80;99.90;;;;;;4137409;28;20143;-67
2022/02/09 07:10:24;;;;;;;10.90;5.18;;;9.80;99.90;;;;;;4136073;28;20709;-67
2022/02/09 07:12:25;;;;;;;9.60;5.97;;;9.80;99.90;;;;;;4136634;28;20556;-66
2022/02/09 07:14:28;;;;;;;8.80;4.97;;;9.80;99.90;;;;;;4137033;28;20125;-66
2022/02/09 07:16:30;;;;;;;;;;;9.80;99.90;;;;;;4132663;28;20042;-66
2022/02/09 07:18:30;;;;;;;6.88;4.78;;;9.90;99.90;;;;;;4134640;28;20093;-66
2022/02/09 07:20:41;;;;;;;7.05;4.70;;;9.80;99.90;;;;;;4133377;28;20498;-66
2022/02/09 07:22:42;;;;;;;6.88;4.63;;;9.80;99.90;;;;;;4134628;28;20046;-66
2022/02/09 07:24:43;;;;;;;8.82;5.60;;;9.80;99.90;;;;;;4136722;28;20092;-66
2022/02/09 07:28:46;;;;;;;7.50;4.45;;;9.80;99.90;;;;;;4136427;28;20469;-67
2022/02/09 07:30:47;;;;;;;8.70;5.20;;;9.80;99.90;;;;;;4134536;28;20058;-67
2022/02/09 07:33:02;;;;;;;7.80;4.68;;;9.80;99.90;;;;;;4134598;28;20490;-67
2022/02/09 07:35:02;;;;;;;7.63;5.53;;;9.80;99.90;;;;;;4133312;28;20038;-69
2022/02/09 07:37:03;;;;;;;7.65;5.43;;;9.80;99.90;;;;;;4135690;28;20044;-67
2022/02/09 07:39:09;;;;;;;7.72;5.28;;;9.80;99.90;;;;;;4135941;28;20033;-66
2022/02/09 07:41:11;;;;;;;7.05;5.13;;;9.80;99.90;;;;;;4129003;28;20117;-66
2022/02/09 07:43:19;;;;;;;7.18;5.85;;;9.80;99.90;;;;;;4136066;28;20077;-67
2022/02/09 07:45:40;;;;;;;9.10;5.80;;;9.90;99.90;;;;;;4129525;28;20469;-67
2022/02/09 07:48:00;;;;;;;8.93;5.78;;;9.90;99.90;;;;;;4129512;28;20042;-66
2022/02/09 07:52:21;;;;;;;8.70;6.10;;;9.90;99.90;;;;;;4135741;28;20057;-67
2022/02/09 07:54:25;;;;;;;9.48;6.18;;;10.00;99.90;;;;;;4133635;28;20129;-67
2022/02/09 07:56:34;;;;;;;8.95;5.97;;;9.90;99.90;;;;;;4135611;28;20049;-67
2022/02/09 07:58:35;;;;;;;7.97;5.38;;;9.90;99.90;;;;;;4137208;28;20085;-66
2022/02/09 08:00:35;;;;;;;11.20;6.30;;;9.90;99.90;;;;;;4136764;28;20999;-67
2022/02/09 08:02:36;;;;;;;10.60;6.70;;;9.90;99.90;;;;;;4135911;28;20429;-66
2022/02/09 08:04:36;;;;;;;9.55;6.72;;;9.90;99.90;;;;;;4136782;28;20034;-66
2022/02/09 08:06:38;;;;;;;10.05;7.18;;;9.90;99.90;;;;;;4135740;28;20038;-67
2022/02/09 08:08:42;;;;;;;8.93;6.47;;;9.90;99.90;;;;;;4136953;28;20057;-67
2022/02/09 08:10:57;;;;;;;10.23;6.40;;;9.90;99.90;;;;;;4116461;28;20154;-66
2022/02/09 08:26:51;;;;;;;10.02;6.90;;;9.90;99.90;;;;;;4134911;28;20519;-66
2022/02/09 08:29:44;;;;;;;10.35;6.82;;;9.90;99.90;;;;;;4132965;28;20097;-67
2022/02/09 08:33:19;;;;;;;10.30;6.53;;;9.90;99.90;;;;;;4135096;28;20042;-67
2022/02/09 08:35:20;;;;;;;10.20;7.10;;;9.90;99.90;;;;;;4113219;28;20078;-68
2022/02/09 08:37:21;;;;;;;8.68;6.57;;;10.00;99.90;;;;;;4134599;28;20077;-66
2022/02/09 08:39:22;;;;;;;9.05;6.10;;;10.00;99.90;;;;;;4135404;28;20053;-67
2022/02/09 08:41:22;;;;;;;8.98;6.05;;;10.00;99.90;;;;;;4136691;28;20481;-67
2022/02/09 08:43:24;;;;;;;10.00;6.75;;;10.00;99.90;;;;;;4132953;28;20042;-68
2022/02/09 08:45:24;;;;;;;9.73;6.68;;;10.00;99.90;;;;;;4131272;28;20081;-67
2022/02/09 08:47:25;;;;;;;11.30;6.85;;;10.00;99.90;;;;;;4134292;28;20053;-67
2022/02/09 08:49:28;;;;;;;10.88;6.70;;;10.00;99.90;;;;;;4135810;28;20054;-67
2022/02/09 08:51:29;;;;;;;10.23;6.75;;;10.00;99.90;;;;;;4133347;28;20034;-66
2022/02/09 08:53:29;;;;;;;8.32;6.05;;;10.00;99.90;;;;;;4135987;28;20584;-66
2022/02/09 08:55:31;;;;;;;9.35;5.90;;;10.00;99.90;;;;;;4136700;28;20129;-66
2022/02/09 08:57:32;;;;;;;9.90;6.63;;;10.00;99.90;;;;;;4137720;28;20097;-66
2022/02/09 08:59:32;;;;;;;9.55;6.22;;;10.10;99.90;;;;;;4136160;28;20449;-66
2022/02/09 09:01:40;;;;;;;9.00;6.18;;;10.00;99.90;;;;;;4136083;28;20494;-66
2022/02/09 09:03:47;;;;;;;8.85;5.95;;;10.10;99.90;;;;;;4135734;28;20034;-66
2022/02/09 09:05:50;;;;;;;8.90;6.25;;;10.10;99.90;;;;;;4130940;28;20026;-66
2022/02/09 09:08:05;;;;;;;7.68;5.45;;;10.10;99.90;;;;;;4127264;28;20061;-67
2022/02/09 09:10:16;;;;;;;10.95;6.45;;;10.10;99.90;;;;;;4137106;28;20049;-67
2022/02/09 10:01:54;;;;;;;4.40;3.08;;;11.20;99.90;;;;;;4184626;28;20540;-69
2022/02/09 10:04:06;;;;;;;4.32;3.05;;;11.20;99.90;;;;;;4186318;28;20049;-69
2022/02/09 10:34:35;;;;;;;7.55;4.47;;;11.30;99.90;;;;;;4185290;28;20044;-69
2022/02/09 10:36:50;;;;;;;7.43;4.75;;;11.30;99.90;;;;;;4199867;28;20037;-69
2022/02/09 10:39:03;;;;;;;6.60;4.30;;;11.30;99.90;;;;;;4185228;28;20036;-69
2022/02/09 10:41:35;;;;;;;7.68;5.13;;;11.30;99.90;;;;;;4184195;28;20128;-69
2022/02/09 10:43:37;;;;;;;7.50;4.60;;;11.30;99.90;;;;;;4182311;28;20082;-69
2022/02/09 10:45:47;;;;;;;7.63;4.82;;;11.20;99.90;;;;;;4184300;28;20040;-69
2022/02/09 10:47:48;;;;;;;7.50;4.40;;;11.20;99.90;;;;;;4185829;28;20036;-69
2022/02/09 10:50:24;;;;;;;9.93;4.72;;;11.20;99.90;;;;;;4216081;27;20036;-69
2022/02/09 10:52:40;;;;;;;7.57;4.72;;;11.20;99.90;;;;;;4185866;28;20416;-69
2022/02/09 10:54:40;;;;;;;8.02;4.55;;;11.20;99.90;;;;;;4177615;28;20053;-69
2022/02/09 10:56:47;;;;;;;7.78;4.95;;;11.10;99.90;;;;;;4174796;28;20036;-69
2022/02/09 10:58:48;;;;;;;6.32;4.60;;;11.10;99.90;;;;;;4192039;28;20133;-69
2022/02/09 11:00:50;;;;;;;6.45;4.50;;;11.10;99.90;;;;;;4172989;28;20513;-69
2022/02/09 11:02:51;;;;;;;8.50;4.95;;;11.10;99.90;;;;;;4171811;28;20083;-69
2022/02/09 11:04:52;;;;;;;6.20;4.13;;;11.00;99.90;;;;;;4174578;28;20033;-69
2022/02/09 11:06:53;;;;;;;8.27;5.47;;;11.00;99.90;;;;;;4173196;28;20033;-69
2022/02/09 11:08:54;;;;;;;7.18;4.63;;;10.90;99.90;;;;;;4175073;28;20036;-69
2022/02/09 11:10:55;;;;;;;5.47;3.95;;;10.90;99.90;;;;;;4174065;28;20134;-69
2022/02/09 11:12:56;;;;;;;6.60;4.00;;;11.00;99.90;;;;;;4174242;28;20525;-69
2022/02/09 11:14:57;;;;;;;8.48;4.60;;;10.90;99.90;;;;;;4179691;28;20045;-69
2022/02/09 11:17:00;;;;;;;7.97;4.55;;;10.90;99.90;;;;;;4174281;28;20561;-69
2022/02/09 11:19:01;;;;;;;5.55;3.97;;;10.90;99.90;;;;;;4189750;28;20064;-69
2022/02/09 11:21:06;;;;;;;7.43;4.38;;;10.90;99.90;;;;;;4188024;28;20040;-69
2022/02/09 11:23:07;;;;;;;5.65;3.60;;;10.90;99.90;;;;;;4191142;28;20078;-69
2022/02/09 11:25:19;;;;;;;7.15;3.30;;;10.90;99.90;;;;;;4189672;28;20090;-69
2022/02/09 11:29:32;;;;;;;5.53;3.42;;;10.90;99.90;;;;;;4174960;28;20029;-69
2022/02/09 11:31:35;;;;;;;4.82;3.20;;;10.90;99.90;;;;;;4188608;28;20111;-69
2022/02/09 11:33:55;;;;;;;3.38;2.72;;;10.90;99.90;;;;;;4173002;28;20079;-69
2022/02/09 11:38:40;;;;;;;4.80;3.08;;;11.00;99.90;;;;;;4199417;28;20850;-69
2022/02/09 11:40:52;;;;;;;3.22;2.35;;;11.00;99.90;;;;;;4172250;28;20513;-69
2022/02/09 11:43:02;;;;;;;3.97;2.40;;;11.00;99.90;;;;;;4221349;27;20510;-69
2022/02/09 11:45:23;;;;;;;6.32;3.60;;;11.10;99.90;;;;;;4191324;28;20493;-69
2022/02/09 11:47:56;;;;;;;3.83;2.88;;;11.10;99.90;;;;;;4173775;28;20041;-69
2022/02/09 11:50:21;;;;;;;4.13;2.75;;;11.00;99.90;;;;;;4178387;28;20082;-69
2022/02/09 12:01:52;;;;;;;8.00;4.03;;;11.00;99.90;;;;;;4175643;28;20146;-69
2022/02/09 12:09:13;;;;;;;4.90;2.90;;;11.10;99.90;;;;;;4188440;28;20056;-69
2022/02/09 12:11:38;;;;;;;5.55;3.20;;;11.00;99.90;;;;;;4189732;28;20490;-69
2022/02/09 12:13:59;;;;;;;5.97;3.35;;;11.00;99.90;;;;;;4174321;28;20041;-69
2022/02/09 12:16:35;;;;;;;4.95;3.33;;;11.00;99.90;;;;;;4180630;28;20036;-69
2022/02/09 12:18:35;;;;;;;7.38;4.10;;;11.00;99.90;;;;;;4173431;28;20048;-69
2022/02/09 12:20:46;;;;;;;6.90;3.65;;;11.00;99.90;;;;;;4172124;28;20578;-69
2022/02/09 12:25:09;;;;;;;5.38;2.90;;;11.10;99.90;;;;;;4174918;28;20062;-69
2022/02/09 12:27:16;;;;;;;5.90;3.45;;;11.10;99.90;;;;;;4176584;28;20411;-69
2022/02/09 12:29:18;;;;;;;9.82;3.33;;;11.10;99.90;;;;;;4177520;28;20036;-69
2022/02/09 12:31:23;;;;;;;5.50;3.47;;;11.00;99.90;;;;;;4189747;28;20037;-69
2022/02/09 12:33:25;;;;;;;4.47;2.78;;;11.00;99.90;;;;;;4190110;28;20044;-69
2022/02/09 12:35:26;;;;;;;7.82;3.10;;;11.00;99.90;;;;;;4190600;28;20036;-69
2022/02/09 12:37:29;;;;;;;6.78;3.05;;;11.00;99.90;;;;;;4189425;28;20048;-69
2022/02/09 12:39:44;;;;;;;5.85;3.40;;;11.10;99.90;;;;;;4188803;28;20029;-69
2022/02/09 12:41:45;;;;;;;5.28;3.42;;;11.10;99.90;;;;;;4188783;28;20036;-69
2022/02/09 12:43:53;;;;;;;4.32;2.67;;;11.10;99.90;;;;;;4190259;28;20378;-69
2022/02/09 12:45:54;;;;;;;5.95;2.53;;;11.20;99.90;;;;;;4171795;28;20033;-69
2022/02/09 12:48:01;;;;;;;6.65;3.60;;;11.10;99.90;;;;;;4173268;28;20033;-69
2022/02/09 12:50:06;;;;;;;4.25;3.15;;;11.20;99.90;;;;;;4187341;28;20040;-69
2022/02/09 12:52:07;;;;;;;5.47;3.35;;;11.20;99.90;;;;;;4189129;28;20524;-69
2022/02/09 12:54:09;;;;;;;3.72;2.60;;;11.30;99.90;;;;;;4179096;28;20159;-68
2022/02/09 12:56:24;;;;;;;5.75;3.05;;;11.30;99.90;;;;;;4188443;28;20036;-69
2022/02/09 12:58:24;;;;;;;5.10;3.05;;;11.40;99.90;;;;;;4175276;28;20041;-69
2022/02/09 13:00:27;;;;;;;6.05;3.13;;;11.40;99.90;;;;;;4172781;28;20521;-69
2022/02/09 13:02:45;;;;;;;6.60;3.50;;;11.40;99.90;;;;;;4174351;28;20045;-69
2022/02/09 13:04:45;;;;;;;4.13;2.72;;;11.50;99.90;;;;;;4171808;28;20063;-69
2022/02/09 13:06:46;;;;;;;4.35;3.25;;;11.50;99.90;;;;;;4173277;28;20045;-69
2022/02/09 13:08:52;;;;;;;4.75;3.53;;;11.50;99.90;;;;;;4171692;28;20029;-69
2022/02/09 13:13:25;;;;;;;8.07;3.95;;;11.50;99.90;;;;;;4173613;28;20082;-69
2022/02/09 13:15:30;;;;;;;6.82;4.28;;;11.50;99.90;;;;;;4171668;28;20457;-69
2022/02/09 13:20:42;;;;;;;5.63;3.70;;;11.50;99.90;;;;;;4173620;28;20028;-69
2022/02/09 14:07:01;;;;;;;5.60;2.67;;;11.50;99.90;;;;;;4188918;28;20064;-69
2022/02/09 14:11:12;;;;;;;4.10;2.53;;;11.40;99.90;;;;;;4169111;28;20090;-69
2022/02/09 14:57:02;;;;;;;3.88;2.10;;;11.60;99.90;;;;;;4131973;28;20033;-69
2022/02/09 14:59:01;;;;;;;3.13;1.80;;;11.60;99.90;;;;;;4182935;28;20032;-69
2022/02/09 15:01:11;;;;;;;3.00;1.85;;;11.70;99.90;;;;;;4175659;28;20102;-69
2022/02/09 15:09:44;;;;;;;3.08;1.77;;;11.70;99.90;;;;;;4175558;28;20037;-69
2022/02/09 15:16:09;;;;;;;2.40;1.70;;;11.80;99.90;;;;;;4190090;28;20045;-69
2022/02/09 15:20:36;;;;;;;3.53;1.80;;;11.80;99.90;;;;;;4174699;28;20041;-69
2022/02/09 15:22:38;;;;;;;4.57;1.90;;;11.80;99.90;;;;;;4174493;28;20314;-69
2022/02/09 15:24:44;;;;;;;3.50;1.98;;;11.80;99.90;;;;;;4174726;28;20045;-69
2022/02/09 15:26:48;;;;;;;4.68;1.85;;;11.80;99.90;;;;;;4174802;28;20036;-69
2022/02/09 15:28:52;;;;;;;1.80;1.30;;;11.80;99.90;;;;;;4191765;28;20498;-69
2022/02/09 15:31:05;;;;;;;2.72;1.70;;;11.80;99.90;;;;;;4174116;28;20037;-69
2022/02/09 15:33:06;;;;;;;5.53;1.80;;;11.80;99.90;;;;;;4175296;28;20052;-69
2022/02/09 15:35:56;;;;;;;2.28;1.52;;;11.80;99.90;;;;;;4169495;28;20037;-69
2022/02/09 15:38:17;;;;;;;3.70;2.10;;;11.80;99.90;;;;;;4182501;28;20045;-69
2022/02/09 15:39:53;;;;;;;3.50;1.75;;;11.80;99.90;;;;;;4174420;28;20087;-69
2022/02/09 15:42:06;;;;;;;3.83;1.95;;;11.80;99.90;;;;;;4178498;28;20025;-69
2022/02/09 15:56:16;;;;;;;3.30;1.45;;;11.80;99.90;;;;;;4175379;28;20037;-69
2022/02/09 16:09:47;;;;;;;2.05;1.30;;;11.70;99.90;;;;;;4174877;28;20071;-69
2022/02/09 16:34:34;;;;;;;2.00;1.27;;;11.80;99.90;;;;;;4179384;28;20048;-69
2022/02/09 16:39:02;;;;;;;4.30;1.58;;;11.80;99.90;;;;;;4192387;28;22336;-69
2022/02/09 16:48:01;;;;;;;3.75;1.67;;;11.80;99.90;;;;;;4173402;28;20032;-68
2022/02/09 16:50:08;;;;;;;2.90;1.83;;;11.80;99.90;;;;;;4175074;28;20953;-68
2022/02/09 16:52:21;;;;;;;3.78;1.70;;;11.80;99.90;;;;;;4173048;28;20053;-68
2022/02/09 16:56:43;;;;;;;2.60;1.90;;;11.80;99.90;;;;;;4189193;28;20094;-68
2022/02/09 17:19:38;;;;;;;2.58;1.70;;;11.70;99.90;;;;;;4173600;28;20140;-68
2022/02/09 17:21:39;;;;;;;2.30;1.50;;;11.70;99.90;;;;;;4172256;28;20033;-68
2022/02/09 17:23:40;;;;;;;2.33;1.70;;;11.70;99.90;;;;;;4189412;28;20093;-68
2022/02/09 17:25:40;;;;;;;2.47;1.60;;;11.70;99.90;;;;;;4191630;28;20040;-68
2022/02/09 17:27:43;;;;;;;2.58;1.63;;;11.70;99.90;;;;;;4191792;28;20040;-68
2022/02/09 17:31:57;;;;;;;2.25;1.48;;;11.80;99.90;;;;;;4190055;28;19916;-71
2022/02/09 17:36:17;;;;;;;2.55;1.65;;;11.80;99.90;;;;;;4174186;28;20072;-68
2022/02/09 17:56:51;;;;;;;4.47;2.13;;;11.80;99.90;;;;;;4173356;28;20116;-68
2022/02/09 17:58:53;;;;;;;4.15;2.42;;;11.80;99.90;;;;;;4200525;28;20020;-68
2022/02/09 18:00:54;;;;;;;3.67;2.08;;;11.80;99.90;;;;;;4188090;28;20025;-68
2022/02/09 18:02:55;;;;;;;4.60;2.47;;;11.80;99.90;;;;;;4188723;28;20040;-68
2022/02/09 18:04:56;;;;;;;4.22;2.33;;;11.70;99.90;;;;;;4193016;28;20133;-68
2022/02/09 18:07:04;;;;;;;4.82;2.70;;;11.70;99.90;;;;;;4179041;28;20025;-68
2022/02/09 18:09:10;;;;;;;4.53;2.38;;;11.70;99.90;;;;;;4176546;28;20028;-68
2022/02/09 18:11:26;;;;;;;3.90;2.53;;;11.70;99.90;;;;;;4176916;28;20040;-68
2022/02/09 18:27:43;;;;;;;3.60;2.00;;;11.70;99.90;;;;;;4178961;28;20028;-71
2022/02/09 18:29:50;;;;;;;3.40;1.85;;;11.70;99.90;;;;;;4176045;28;20087;-70
2022/02/09 18:45:16;;;;;;;5.82;3.30;;;11.70;99.90;;;;;;4178634;28;20444;-70
2022/02/09 19:03:33;;;;;;;5.32;2.78;;;11.60;99.90;;;;;;4177546;28;20062;-72
2022/02/09 19:05:40;;;;;;;6.28;3.38;;;11.60;99.90;;;;;;4190269;28;20119;-72
2022/02/09 19:08:37;;;;;;;5.63;3.10;;;11.60;99.90;;;;;;4193392;28;20452;-72
2022/02/09 19:15:01;;;;;;;6.57;3.17;;;11.50;99.90;;;;;;4194899;28;20037;-72
2022/02/09 19:17:09;;;;;;;5.75;3.55;;;11.50;99.90;;;;;;4176721;28;20143;-72
2022/02/09 19:19:35;;;;;;;5.85;3.40;;;11.50;99.90;;;;;;4193533;28;20033;-73
2022/02/09 19:31:23;;;;;;;6.45;3.20;;;11.40;99.90;;;;;;4174472;28;20180;-72
2022/02/09 19:33:41;;;;;;;5.25;3.05;;;11.40;99.90;;;;;;4169450;28;20056;-72
2022/02/09 19:46:59;;;;;;;7.32;3.60;;;11.30;99.90;;;;;;4192368;28;20033;-72
2022/02/09 19:49:14;;;;;;;6.53;3.95;;;11.30;99.90;;;;;;4187017;28;20032;-72
2022/02/09 19:51:31;;;;;;;5.95;3.90;;;11.30;99.90;;;;;;4171868;28;20041;-72
2022/02/09 19:53:55;;;;;;;5.38;3.63;;;11.30;99.90;;;;;;4176135;28;20050;-72
2022/02/09 19:55:59;;;;;;;5.28;3.53;;;11.30;99.90;;;;;;4186138;28;20170;-72
2022/02/09 19:58:01;;;;;;;5.05;3.42;;;11.30;99.90;;;;;;4178042;28;20103;-72
2022/02/09 20:00:07;;;;;;;8.88;4.65;;;11.30;99.90;;;;;;4175561;28;20033;-72
2022/02/09 20:02:09;;;;;;;7.45;4.07;;;11.40;99.90;;;;;;4177650;28;20029;-72
2022/02/09 20:04:10;;;;;;;5.97;3.53;;;11.40;99.90;;;;;;4189125;28;20036;-72
2022/02/09 20:06:11;;;;;;;6.22;3.08;;;11.40;99.90;;;;;;4186817;28;20371;-72
2022/02/09 20:08:12;;;;;;;5.30;3.22;;;11.40;99.90;;;;;;4183227;28;20052;-72
2022/02/09 20:10:12;;;;;;;4.68;2.90;;;11.40;99.90;;;;;;4181108;28;20040;-72
2022/02/09 20:12:14;;;;;;;4.97;3.00;;;11.40;99.90;;;;;;4181242;28;20429;-72
2022/02/09 20:14:15;;;;;;;5.82;3.42;;;11.40;99.90;;;;;;4181337;28;20119;-72
2022/02/09 20:16:16;;;;;;;5.05;3.20;;;11.40;99.90;;;;;;4183529;28;20419;-71
2022/02/09 20:18:17;;;;;;;5.05;3.50;;;11.40;99.90;;;;;;4175295;28;20044;-71
2022/02/09 20:20:24;;;;;;;5.80;3.80;;;11.40;99.90;;;;;;4174209;28;20471;-71
2022/02/09 20:22:25;;;;;;;8.50;4.10;;;11.40;99.90;;;;;;4175748;28;20041;-71
2022/02/09 20:24:26;;;;;;;5.47;4.07;;;11.40;99.90;;;;;;4193515;28;20075;-71
2022/02/09 20:26:27;;;;;;;7.90;3.80;;;11.40;99.90;;;;;;4182550;28;20043;-71
2022/02/09 20:28:27;;;;;;;5.40;3.50;;;11.30;99.90;;;;;;4175556;28;20037;-71
2022/02/09 20:30:35;;;;;;;7.38;3.88;;;11.40;99.90;;;;;;4174989;28;20041;-71
2022/02/09 20:32:41;;;;;;;6.13;3.40;;;11.30;99.90;;;;;;4170626;28;20030;-71
2022/02/09 20:34:53;;;;;;;5.45;3.33;;;11.30;99.90;;;;;;4186118;28;20045;-71
2022/02/09 20:36:54;;;;;;;5.78;3.33;;;11.30;99.90;;;;;;4184181;28;20036;-71
2022/02/09 20:38:57;;;;;;;4.68;3.17;;;11.20;99.90;;;;;;4159547;28;20521;-71
2022/02/09 20:41:04;;;;;;;5.70;3.38;;;11.30;99.90;;;;;;4174134;28;20438;-71
2022/02/09 20:43:07;;;;;;;6.95;3.95;;;11.20;99.90;;;;;;4191042;28;20032;-71
2022/02/09 20:45:16;;;;;;;6.43;3.95;;;11.20;99.90;;;;;;4190929;28;20047;-71
2022/02/09 20:47:17;;;;;;;10.20;5.50;;;11.10;99.90;;;;;;4185181;28;20040;-71
2022/02/09 20:49:18;;;;;;;8.77;4.82;;;11.00;99.90;;;;;;4174732;28;20470;-71
2022/02/09 20:51:19;;;;;;;8.43;5.75;;;11.00;99.90;;;;;;4175808;28;20035;-71
2022/02/09 20:53:20;;;;;;;8.43;5.30;;;11.00;99.90;;;;;;4175252;28;20041;-71
2022/02/09 20:55:22;;;;;;;9.18;5.30;;;10.90;99.90;;;;;;4175108;28;20033;-71
2022/02/09 20:57:23;;;;;;;8.70;4.80;;;10.90;99.90;;;;;;4175668;28;20095;-71
2022/02/09 20:59:25;;;;;;;7.70;5.03;;;10.80;99.90;;;;;;4174588;28;20088;-71
2022/02/09 21:01:54;;;;;;;10.20;4.82;;;10.80;99.90;;;;;;4190765;28;20047;-71
2022/02/09 21:04:01;;;;;;;7.47;5.05;;;10.80;99.90;;;;;;4175712;28;20481;-71
2022/02/09 21:10:31;;;;;;;9.55;5.10;;;10.60;99.90;;;;;;4182086;28;20035;-71
2022/02/09 21:12:46;;;;;;;9.25;5.35;;;10.60;99.90;;;;;;4173594;28;20048;-71
2022/02/09 21:15:06;;;;;;;16.85;6.40;;;10.50;99.90;;;;;;4173385;28;20049;-71
2022/02/09 21:19:26;;;;;;;9.27;4.88;;;10.50;99.90;;;;;;4173666;28;20044;-71
2022/02/09 21:33:13;;;;;;;9.50;5.32;;;10.50;99.90;;;;;;4191027;28;20036;-71
2022/02/09 21:44:50;;;;;;;11.18;5.30;;;10.40;99.90;;;;;;4192351;28;20057;-71
2022/02/09 21:55:28;;;;;;;10.10;5.75;;;10.30;99.90;;;;;;4176517;28;20037;-71
2022/02/09 22:20:35;;;;;;;12.57;5.38;;;10.20;99.90;;;;;;4192474;28;20043;-71
2022/02/09 22:22:42;;;;;;;8.55;5.63;;;10.20;99.90;;;;;;4177685;28;20036;-71
2022/02/09 22:29:21;;;;;;;10.35;5.80;;;10.20;99.90;;;;;;4175983;28;20028;-71
2022/02/09 22:48:21;;;;;;;12.32;5.65;;;10.10;99.90;;;;;;4174852;28;20041;-71
2022/02/09 22:54:45;;;;;;;9.23;4.93;;;10.10;99.90;;;;;;4192963;28;20060;-71